Time;durP1;ratioP1;P1;durP2;ratioP2;P2;SDS_P1;SDS_P2;PMS_P1;PMS_P2;Temp;Humidity;BMP_temperature;BMP_pressure;BME280_temperature;BME280_humidity;BME280_pressure;Samples;Min_cycle;Max_cycle;Signal;HPM_P1;HPM_P2
2023/01/04 00:01:07;;;;;;;2.10;1.70;;;18.10;62.90;;;;;;5051126;28;20185;-71
2023/01/04 00:03:33;;;;;;;2.05;1.85;;;18.10;62.90;;;;;;5024670;28;20540;-71
2023/01/04 00:06:02;;;;;;;2.50;1.75;;;18.20;63.00;;;;;;5062226;28;20224;-71
2023/01/04 00:08:29;;;;;;;3.42;1.60;;;18.20;63.00;;;;;;5043040;28;20243;-71
2023/01/04 00:11:07;;;;;;;1.90;1.70;;;18.10;62.90;;;;;;5053502;28;20186;-70
2023/01/04 00:13:34;;;;;;;2.70;1.58;;;18.10;62.90;;;;;;5047285;28;20327;-71
2023/01/04 00:16:06;;;;;;;1.65;1.55;;;18.10;62.90;;;;;;5049255;28;20697;-70
2023/01/04 00:18:33;;;;;;;1.75;1.60;;;18.10;62.90;;;;;;5060227;28;20186;-70
2023/01/04 00:21:15;;;;;;;2.58;1.45;;;18.10;62.90;;;;;;5049321;28;20198;-70
2023/01/04 00:23:45;;;;;;;1.75;1.50;;;18.20;63.00;;;;;;5034279;28;20580;-70
2023/01/04 00:26:20;;;;;;;1.60;1.50;;;18.10;62.90;;;;;;5058929;28;20246;-71
2023/01/04 00:28:47;;;;;;;1.77;1.50;;;18.20;63.00;;;;;;5022544;28;20269;-70
2023/01/04 00:31:14;;;;;;;1.50;1.40;;;18.10;62.90;;;;;;5042695;28;20183;-70
2023/01/04 00:33:40;;;;;;;1.73;1.50;;;18.20;63.00;;;;;;5041129;28;20173;-70
2023/01/04 00:36:12;;;;;;;1.63;1.30;;;18.10;62.80;;;;;;5043160;28;20214;-70
2023/01/04 00:38:40;;;;;;;1.60;1.40;;;18.10;62.80;;;;;;5029568;28;20213;-70
2023/01/04 00:41:08;;;;;;;2.55;1.80;;;18.10;62.80;;;;;;5052825;28;20624;-70
2023/01/04 00:43:34;;;;;;;1.85;1.60;;;18.10;62.80;;;;;;5047750;28;20240;-71
2023/01/04 00:46:00;;;;;;;1.77;1.50;;;18.20;62.90;;;;;;5042021;28;20209;-71
2023/01/04 00:48:28;;;;;;;1.50;1.40;;;18.20;62.90;;;;;;5052492;28;20262;-70
2023/01/04 00:50:55;;;;;;;1.35;1.25;;;18.20;63.30;;;;;;5042583;28;20193;-70
2023/01/04 00:53:21;;;;;;;1.60;1.50;;;18.10;62.80;;;;;;5053958;28;20212;-70
2023/01/04 00:55:47;;;;;;;2.05;1.50;;;18.20;62.90;;;;;;5037073;28;20688;-70
2023/01/04 00:58:13;;;;;;;1.48;1.35;;;18.10;62.80;;;;;;5034072;28;20174;-70
2023/01/04 01:00:40;;;;;;;2.67;1.55;;;18.20;62.90;;;;;;5017281;28;20206;-70
2023/01/04 01:03:06;;;;;;;2.30;1.55;;;18.20;62.90;;;;;;5042925;28;20190;-71
2023/01/04 01:05:34;;;;;;;2.33;1.50;;;18.10;62.80;;;;;;5034049;28;20208;-71
2023/01/04 01:08:23;;;;;;;1.65;1.30;;;18.10;62.80;;;;;;5034096;28;20575;-71
2023/01/04 01:10:49;;;;;;;1.65;1.20;;;18.10;62.80;;;;;;5033963;28;20187;-70
2023/01/04 01:13:15;;;;;;;1.67;1.45;;;18.20;62.80;;;;;;5033843;28;20186;-70
2023/01/04 01:15:41;;;;;;;1.33;1.20;;;18.10;62.70;;;;;;5033822;28;20207;-71
2023/01/04 01:18:07;;;;;;;1.52;1.42;;;18.10;62.70;;;;;;5050123;28;20194;-71
2023/01/04 01:20:32;;;;;;;1.63;1.40;;;18.10;62.80;;;;;;5033934;28;20183;-71
2023/01/04 01:22:58;;;;;;;1.63;1.50;;;18.20;62.70;;;;;;5058995;28;20221;-70
2023/01/04 01:25:24;;;;;;;2.20;1.38;;;18.20;62.70;;;;;;5052313;28;20187;-71
2023/01/04 01:27:49;;;;;;;1.60;1.50;;;18.10;62.60;;;;;;5029262;28;20210;-71
2023/01/04 01:30:15;;;;;;;1.30;1.20;;;18.10;62.60;;;;;;5036980;28;20187;-71
2023/01/04 01:32:41;;;;;;;1.73;1.40;;;18.20;62.70;;;;;;5045509;28;20182;-71
2023/01/04 01:35:07;;;;;;;1.75;1.65;;;18.20;62.70;;;;;;5065297;28;20562;-71
2023/01/04 01:37:33;;;;;;;1.50;1.40;;;18.10;62.60;;;;;;5043091;28;20220;-71
2023/01/04 01:39:58;;;;;;;1.90;1.60;;;18.10;62.60;;;;;;5047818;28;20194;-70
2023/01/04 01:42:24;;;;;;;1.40;1.30;;;18.10;62.60;;;;;;5045513;28;20191;-70
2023/01/04 01:45:09;;;;;;;2.10;1.20;;;18.20;62.70;;;;;;5028093;28;20268;-71
2023/01/04 01:47:46;;;;;;;1.40;1.17;;;18.20;62.70;;;;;;5037364;28;20218;-71
2023/01/04 01:50:26;;;;;;;1.55;1.20;;;18.10;62.60;;;;;;5037494;28;20189;-71
2023/01/04 01:52:57;;;;;;;2.00;1.30;;;18.20;62.70;;;;;;5065647;28;20242;-70
2023/01/04 01:55:23;;;;;;;1.30;1.20;;;18.20;62.70;;;;;;5036896;28;20197;-70
2023/01/04 01:57:52;;;;;;;1.77;1.30;;;18.20;62.70;;;;;;5044939;28;20182;-70
2023/01/04 02:00:18;;;;;;;1.48;1.38;;;18.10;62.60;;;;;;5045157;28;20187;-70
2023/01/04 02:02:58;;;;;;;1.08;1.08;;;18.20;62.60;;;;;;5053391;28;20236;-70
2023/01/04 02:05:27;;;;;;;1.63;1.40;;;18.20;62.70;;;;;;5020324;28;20190;-70
2023/01/04 02:07:53;;;;;;;1.20;1.10;;;18.10;62.60;;;;;;5044962;28;20225;-70
2023/01/04 02:10:19;;;;;;;2.00;1.20;;;18.10;62.60;;;;;;5036398;28;20187;-71
2023/01/04 02:12:46;;;;;;;1.52;1.30;;;18.10;62.60;;;;;;5053267;28;20608;-71
2023/01/04 02:15:12;;;;;;;1.70;1.30;;;18.10;62.60;;;;;;5052927;28;20276;-71
2023/01/04 02:18:14;;;;;;;1.52;1.30;;;18.20;62.70;;;;;;5036752;28;20621;-70
2023/01/04 02:20:55;;;;;;;1.25;1.00;;;18.20;62.70;;;;;;5016130;28;20228;-71
2023/01/04 02:24:04;;;;;;;1.40;1.30;;;18.20;63.00;;;;;;5048245;28;20205;-71
2023/01/04 02:27:28;;;;;;;1.25;1.10;;;18.20;62.60;;;;;;5020921;28;20225;-71
2023/01/04 02:29:54;;;;;;;1.67;1.25;;;18.20;62.60;;;;;;5049174;28;20566;-71
2023/01/04 02:32:42;;;;;;;1.73;1.52;;;18.20;62.60;;;;;;5019622;28;20248;-71
2023/01/04 02:35:51;;;;;;;1.40;1.30;;;18.10;62.60;;;;;;5035978;28;20217;-71
2023/01/04 02:38:40;;;;;;;1.50;1.40;;;18.20;62.60;;;;;;5052781;28;20218;-71
2023/01/04 02:41:35;;;;;;;1.33;1.17;;;18.10;62.50;;;;;;5019452;28;20191;-71
2023/01/04 02:50:29;;;;;;;1.40;1.20;;;18.10;62.60;;;;;;5053414;28;20222;-70
2023/01/04 02:50:30;;;;;;;1.65;1.05;;;18.20;62.60;;;;;;5037521;28;20186;-71
2023/01/04 02:53:10;;;;;;;1.25;1.15;;;18.10;62.50;;;;;;5047464;28;20186;-71
2023/01/04 02:55:49;;;;;;;2.08;1.20;;;18.20;62.60;;;;;;5035786;28;20210;-70
2023/01/04 02:58:50;;;;;;;1.00;1.00;;;18.10;62.60;;;;;;5060111;28;20182;-70
2023/01/04 03:08:00;;;;;;;1.20;1.00;;;18.10;62.60;;;;;;5052980;28;20239;-70
2023/01/04 03:10:47;;;;;;;1.05;1.02;;;18.10;62.60;;;;;;5035538;28;20190;-71
2023/01/04 03:13:42;;;;;;;1.17;0.90;;;18.10;62.50;;;;;;5036563;28;20185;-71
2023/01/04 03:16:17;;;;;;;1.10;1.00;;;18.10;62.60;;;;;;5061320;28;20298;-71
2023/01/04 03:18:49;;;;;;;1.15;1.00;;;18.10;62.60;;;;;;5041321;28;20185;-71
2023/01/04 03:21:19;;;;;;;1.77;1.00;;;18.10;62.50;;;;;;5036562;28;20285;-71
2023/01/04 03:36:17;;;;;;;1.10;0.90;;;18.10;62.50;;;;;;5046600;28;20213;-71
2023/01/04 03:49:32;;;;;;;1.13;0.90;;;18.10;62.50;;;;;;5047595;28;20290;-71
2023/01/04 03:52:02;;;;;;;1.50;0.90;;;18.20;62.70;;;;;;5055050;28;20198;-71
2023/01/04 03:54:37;;;;;;;0.88;0.88;;;18.10;62.50;;;;;;5042637;28;20277;-71
2023/01/04 03:57:05;;;;;;;1.00;0.90;;;18.20;62.70;;;;;;5034906;28;20215;-71
2023/01/04 03:59:38;;;;;;;1.20;1.10;;;18.20;62.60;;;;;;5054453;28;20243;-71
2023/01/04 04:02:07;;;;;;;0.93;0.93;;;18.10;62.50;;;;;;5042964;28;20194;-71
2023/01/04 04:10:01;;;;;;;0.73;0.73;;;18.20;62.70;;;;;;5060221;28;20197;-70
2023/01/04 04:12:27;;;;;;;0.90;0.90;;;18.10;63.40;;;;;;5052222;28;20186;-71
2023/01/04 04:14:53;;;;;;;1.05;0.95;;;18.10;62.60;;;;;;5041436;28;20186;-71
2023/01/04 04:17:19;;;;;;;1.58;1.00;;;18.20;62.60;;;;;;5043253;28;20224;-71
2023/01/04 04:19:44;;;;;;;1.67;1.00;;;18.10;62.60;;;;;;5034405;28;20190;-71
2023/01/04 04:22:10;;;;;;;0.80;0.80;;;18.20;62.60;;;;;;5060488;28;20240;-71
2023/01/04 04:24:36;;;;;;;0.95;0.90;;;18.10;62.60;;;;;;5045977;28;20189;-71
2023/01/04 04:27:02;;;;;;;1.00;0.90;;;18.10;62.60;;;;;;5068696;22;20256;-67
2023/01/04 04:29:27;;;;;;;0.80;0.80;;;18.20;62.60;;;;;;5070417;28;20186;-67
2023/01/04 04:31:53;;;;;;;1.38;1.10;;;18.20;62.60;;;;;;5067069;28;20193;-67
2023/01/04 04:34:19;;;;;;;1.00;1.00;;;18.20;62.70;;;;;;5070466;28;20185;-67
2023/01/04 04:36:45;;;;;;;1.20;0.95;;;18.20;62.70;;;;;;5075760;28;20215;-66
2023/01/04 04:39:11;;;;;;;0.77;0.70;;;18.10;62.60;;;;;;5049512;28;20186;-67
2023/01/04 04:41:40;;;;;;;1.13;1.00;;;18.20;62.60;;;;;;5034184;28;20174;-67
2023/01/04 04:44:09;;;;;;;1.00;0.90;;;18.20;62.60;;;;;;5042043;28;20220;-67
2023/01/04 04:46:35;;;;;;;0.93;0.93;;;18.10;62.50;;;;;;5051789;28;20289;-67
2023/01/04 04:49:01;;;;;;;1.10;1.00;;;18.20;62.60;;;;;;5050742;28;20194;-66
2023/01/04 04:51:27;;;;;;;1.25;1.00;;;18.10;62.50;;;;;;5050682;28;20528;-66
2023/01/04 04:53:53;;;;;;;1.13;0.80;;;18.20;62.60;;;;;;5067765;28;20182;-67
2023/01/04 04:56:19;;;;;;;0.80;0.80;;;18.10;62.50;;;;;;5051639;28;20206;-67
2023/01/04 04:58:44;;;;;;;0.98;0.90;;;18.20;62.60;;;;;;5034078;28;20186;-67
2023/01/04 05:01:11;;;;;;;1.02;0.93;;;18.10;62.50;;;;;;5069097;28;20201;-67
2023/01/04 05:03:37;;;;;;;1.00;1.00;;;18.20;62.70;;;;;;5039070;28;20240;-67
2023/01/04 05:06:03;;;;;;;1.20;0.90;;;18.20;62.60;;;;;;5054443;28;20218;-67
2023/01/04 05:08:28;;;;;;;1.20;1.00;;;18.20;62.60;;;;;;5054621;28;20186;-67
2023/01/04 05:10:54;;;;;;;0.85;0.85;;;18.10;62.50;;;;;;5054167;28;20179;-67
2023/01/04 05:13:20;;;;;;;0.85;0.80;;;18.20;62.60;;;;;;5054308;28;20197;-67
2023/01/04 05:15:49;;;;;;;1.52;0.90;;;18.20;62.60;;;;;;5054453;28;20178;-66
2023/01/04 05:18:18;;;;;;;2.05;0.80;;;18.20;62.60;;;;;;5071145;28;20187;-66
2023/01/04 05:20:44;;;;;;;1.05;0.90;;;18.20;62.60;;;;;;5054367;28;20191;-67
2023/01/04 05:23:15;;;;;;;1.08;1.00;;;18.20;62.60;;;;;;5055364;28;20240;-66
2023/01/04 05:25:41;;;;;;;1.00;0.90;;;18.20;62.60;;;;;;5054211;28;20207;-67
2023/01/04 05:28:09;;;;;;;0.90;0.90;;;18.20;62.60;;;;;;5054184;28;20724;-66
2023/01/04 05:30:50;;;;;;;1.15;0.85;;;18.20;62.50;;;;;;5054027;28;20261;-67
2023/01/04 05:33:27;;;;;;;0.77;0.77;;;18.20;62.60;;;;;;5070898;28;20281;-67
2023/01/04 05:35:55;;;;;;;0.77;0.77;;;18.20;62.50;;;;;;5070701;28;20216;-67
2023/01/04 05:38:21;;;;;;;1.05;0.80;;;18.20;62.50;;;;;;5054233;28;20212;-68
2023/01/04 05:40:49;;;;;;;1.00;0.90;;;18.20;62.50;;;;;;5048044;28;20207;-67
2023/01/04 05:43:16;;;;;;;1.83;0.90;;;18.20;62.50;;;;;;5052700;28;20192;-67
2023/01/04 05:45:52;;;;;;;0.85;0.85;;;18.20;62.50;;;;;;5036884;28;20661;-66
2023/01/04 05:48:19;;;;;;;0.80;0.80;;;18.20;62.60;;;;;;5053623;28;20197;-67
2023/01/04 05:50:45;;;;;;;1.05;0.80;;;18.20;62.50;;;;;;5053519;28;20236;-66
2023/01/04 05:53:13;;;;;;;0.88;0.80;;;18.20;62.50;;;;;;5053639;28;20192;-67
2023/01/04 05:55:39;;;;;;;1.13;1.02;;;18.20;62.50;;;;;;5053673;28;20186;-66
2023/01/04 05:58:05;;;;;;;1.98;0.90;;;18.20;62.50;;;;;;5062306;28;20245;-67
2023/01/04 06:00:31;;;;;;;0.98;0.82;;;18.20;62.50;;;;;;5053203;28;20174;-67
2023/01/04 06:02:56;;;;;;;1.20;1.10;;;18.20;62.50;;;;;;5053836;28;20232;-67
2023/01/04 06:05:24;;;;;;;0.80;0.80;;;18.20;62.50;;;;;;5053976;28;20210;-66
2023/01/04 06:07:50;;;;;;;1.17;1.08;;;18.20;62.50;;;;;;5053206;28;20214;-67
2023/01/04 06:10:16;;;;;;;1.02;0.98;;;18.20;62.50;;;;;;5051774;28;20205;-66
2023/01/04 06:12:42;;;;;;;1.00;1.00;;;18.20;62.50;;;;;;5047064;28;20190;-67
2023/01/04 06:15:10;;;;;;;0.80;0.80;;;18.20;62.50;;;;;;5044848;28;20237;-67
2023/01/04 06:17:37;;;;;;;1.10;0.90;;;18.20;62.40;;;;;;5061851;28;20213;-67
2023/01/04 06:20:05;;;;;;;0.80;0.73;;;18.20;62.50;;;;;;5069742;28;20209;-67
2023/01/04 06:22:31;;;;;;;0.80;0.80;;;18.20;62.50;;;;;;5051103;28;20183;-67
2023/01/04 06:24:58;;;;;;;1.88;0.90;;;18.20;62.50;;;;;;5039834;28;20236;-68
2023/01/04 06:27:24;;;;;;;1.00;0.98;;;18.20;62.50;;;;;;5035985;28;20219;-67
2023/01/04 06:29:50;;;;;;;0.80;0.80;;;18.20;62.50;;;;;;5054055;28;20190;-67
2023/01/04 06:32:16;;;;;;;1.20;1.10;;;18.20;62.60;;;;;;5033262;28;20223;-67
2023/01/04 06:34:41;;;;;;;0.88;0.80;;;18.20;62.60;;;;;;5037409;28;20218;-66
2023/01/04 06:37:08;;;;;;;0.80;0.80;;;18.20;62.50;;;;;;5052818;28;20218;-67
2023/01/04 06:39:35;;;;;;;0.73;0.73;;;18.20;62.50;;;;;;5069226;28;20194;-67
2023/01/04 06:42:02;;;;;;;0.95;0.90;;;18.20;62.50;;;;;;5036191;28;20194;-67
2023/01/04 06:44:27;;;;;;;0.80;0.80;;;18.20;62.50;;;;;;5052219;28;20190;-66
2023/01/04 06:46:53;;;;;;;0.80;0.80;;;18.20;62.50;;;;;;5052450;28;20214;-67
2023/01/04 06:49:19;;;;;;;0.93;0.90;;;18.20;62.50;;;;;;5069245;28;20195;-66
2023/01/04 06:51:45;;;;;;;0.75;0.75;;;18.20;62.50;;;;;;5052537;28;20189;-67
2023/01/04 06:54:12;;;;;;;0.65;0.65;;;18.20;62.50;;;;;;5044128;28;20194;-65
2023/01/04 06:56:39;;;;;;;1.27;0.80;;;18.20;62.50;;;;;;5035828;28;20202;-67
2023/01/04 06:59:05;;;;;;;0.77;0.77;;;18.20;62.60;;;;;;5044056;28;20190;-67
2023/01/04 07:01:32;;;;;;;0.80;0.80;;;18.20;62.60;;;;;;5060918;28;20191;-67
2023/01/04 07:03:58;;;;;;;0.75;0.75;;;18.20;62.50;;;;;;5052497;28;20568;-67
2023/01/04 07:06:23;;;;;;;0.90;0.90;;;18.20;62.60;;;;;;5068647;28;20221;-67
2023/01/04 07:08:49;;;;;;;0.80;0.80;;;18.20;62.50;;;;;;5044208;28;20191;-67
2023/01/04 07:11:15;;;;;;;0.80;0.80;;;18.20;62.50;;;;;;5052014;28;20186;-66
2023/01/04 07:13:40;;;;;;;0.90;0.90;;;18.20;62.50;;;;;;5069168;28;20190;-67
2023/01/04 07:16:06;;;;;;;0.75;0.75;;;18.20;62.50;;;;;;5051997;28;20210;-67
2023/01/04 07:18:32;;;;;;;0.75;0.75;;;18.20;62.60;;;;;;5051940;28;20273;-65
2023/01/04 07:20:57;;;;;;;0.90;0.90;;;18.20;62.60;;;;;;5051873;28;20198;-67
2023/01/04 07:23:23;;;;;;;1.45;1.10;;;18.20;62.60;;;;;;5050944;28;20198;-67
2023/01/04 07:25:49;;;;;;;0.80;0.70;;;18.20;62.60;;;;;;5051770;28;20186;-68
2023/01/04 07:29:13;;;;;;;1.10;1.00;;;18.20;62.60;;;;;;5035034;28;20198;-67
2023/01/04 07:31:06;;;;;;;1.00;1.00;;;18.20;62.60;;;;;;5051556;28;20221;-66
2023/01/04 07:33:32;;;;;;;0.80;0.80;;;18.20;62.60;;;;;;5051900;28;20198;-67
2023/01/04 07:36:04;;;;;;;1.02;0.93;;;18.20;62.60;;;;;;5051873;28;20197;-68
2023/01/04 07:38:29;;;;;;;0.90;0.80;;;18.20;62.60;;;;;;5052626;28;20221;-67
2023/01/04 07:40:55;;;;;;;1.20;0.98;;;18.20;62.70;;;;;;5068122;28;20187;-66
2023/01/04 07:43:21;;;;;;;1.23;0.90;;;18.20;62.60;;;;;;5051353;28;20190;-67
2023/01/04 07:45:47;;;;;;;0.90;0.90;;;18.20;62.60;;;;;;5050935;28;20183;-68
2023/01/04 07:48:13;;;;;;;1.23;1.00;;;18.20;62.60;;;;;;5043231;28;20202;-68
2023/01/04 07:50:38;;;;;;;1.13;0.85;;;18.20;62.60;;;;;;5052321;28;20190;-67
2023/01/04 07:53:04;;;;;;;0.80;0.80;;;18.20;62.60;;;;;;5052528;28;20190;-67
2023/01/04 07:55:30;;;;;;;0.88;0.88;;;18.20;62.60;;;;;;5034838;28;20236;-67
2023/01/04 07:57:55;;;;;;;1.08;1.08;;;18.30;62.70;;;;;;5051349;28;20217;-67
2023/01/04 08:00:21;;;;;;;1.20;1.00;;;18.30;62.70;;;;;;5050936;28;20190;-67
2023/01/04 08:02:48;;;;;;;2.00;1.30;;;18.30;62.70;;;;;;5067900;28;20194;-68
2023/01/04 08:05:14;;;;;;;1.05;0.95;;;18.20;62.60;;;;;;5067867;28;20264;-67
2023/01/04 08:07:40;;;;;;;1.77;1.00;;;18.20;62.60;;;;;;5066044;28;20666;-67
2023/01/04 08:10:06;;;;;;;1.17;1.10;;;18.30;62.70;;;;;;5034734;28;20289;-67
2023/01/04 08:12:32;;;;;;;1.52;1.00;;;18.30;62.70;;;;;;5067935;28;20190;-67
2023/01/04 08:14:58;;;;;;;2.92;1.20;;;18.30;62.70;;;;;;5050712;28;20193;-67
2023/01/04 08:17:23;;;;;;;1.23;1.13;;;18.20;63.30;;;;;;5050827;28;20225;-68
2023/01/04 08:19:49;;;;;;;1.67;1.20;;;18.20;62.60;;;;;;5067469;28;20190;-67
2023/01/04 08:22:15;;;;;;;1.23;1.00;;;18.30;62.70;;;;;;5067511;28;20198;-67
2023/01/04 08:24:41;;;;;;;1.42;1.00;;;18.20;62.60;;;;;;5042940;28;20197;-68
2023/01/04 08:27:07;;;;;;;1.33;1.00;;;18.20;62.60;;;;;;5067510;28;20301;-67
2023/01/04 08:29:33;;;;;;;1.10;1.00;;;18.30;62.80;;;;;;5033916;28;20213;-68
2023/01/04 08:31:58;;;;;;;1.25;1.00;;;18.20;62.60;;;;;;5050948;28;20683;-67
2023/01/04 08:34:24;;;;;;;1.95;1.20;;;18.30;62.70;;;;;;5034272;28;20197;-67
2023/01/04 08:36:52;;;;;;;0.93;0.88;;;18.20;62.60;;;;;;5042388;28;20217;-68
2023/01/04 08:39:18;;;;;;;1.20;1.10;;;18.20;62.60;;;;;;5050365;28;20194;-67
2023/01/04 08:41:51;;;;;;;1.50;1.15;;;18.30;62.80;;;;;;5050977;28;20632;-68
2023/01/04 08:44:22;;;;;;;1.20;1.10;;;18.30;62.70;;;;;;5051729;28;20282;-67
2023/01/04 08:46:51;;;;;;;0.95;0.88;;;18.20;62.60;;;;;;5050695;28;20206;-68
2023/01/04 08:49:18;;;;;;;0.98;0.70;;;18.30;62.70;;;;;;5051064;28;20221;-68
2023/01/04 08:51:44;;;;;;;1.10;0.90;;;18.30;62.80;;;;;;5067293;28;20182;-67
2023/01/04 08:54:10;;;;;;;0.93;0.93;;;18.20;62.60;;;;;;5033797;28;20182;-67
2023/01/04 08:56:37;;;;;;;1.13;1.00;;;18.30;62.70;;;;;;5050574;28;20217;-67
2023/01/04 08:59:03;;;;;;;1.42;1.10;;;18.30;62.80;;;;;;5050748;28;20252;-68
2023/01/04 09:01:34;;;;;;;2.10;0.93;;;18.30;62.70;;;;;;5053294;28;20232;-67
2023/01/04 09:04:00;;;;;;;1.00;0.90;;;18.20;62.60;;;;;;5050758;28;20194;-68
2023/01/04 09:06:26;;;;;;;1.80;0.98;;;18.20;62.60;;;;;;5050327;28;20228;-68
2023/01/04 09:08:52;;;;;;;0.70;0.70;;;18.30;62.80;;;;;;5067372;28;20190;-68
2023/01/04 09:11:21;;;;;;;1.20;0.90;;;18.30;62.80;;;;;;5067461;28;20328;-67
2023/01/04 09:13:48;;;;;;;1.25;1.15;;;18.30;62.70;;;;;;5042604;28;20193;-68
2023/01/04 09:16:19;;;;;;;1.38;0.70;;;18.30;62.70;;;;;;5067100;28;20199;-68
2023/01/04 09:18:45;;;;;;;0.82;0.82;;;18.30;62.80;;;;;;5042182;28;20187;-67
2023/01/04 09:21:15;;;;;;;0.85;0.85;;;18.30;62.70;;;;;;5050580;28;20672;-68
2023/01/04 09:23:43;;;;;;;1.10;0.93;;;18.30;62.70;;;;;;5067053;28;20190;-67
2023/01/04 09:26:16;;;;;;;1.90;0.90;;;18.30;62.70;;;;;;5066753;28;20222;-68
2023/01/04 09:28:42;;;;;;;1.17;0.90;;;18.30;62.80;;;;;;5067213;28;20190;-67
2023/01/04 09:31:18;;;;;;;1.05;0.95;;;18.30;62.70;;;;;;5050573;28;20206;-67
2023/01/04 09:33:45;;;;;;;0.95;0.70;;;18.30;62.70;;;;;;5050035;28;20187;-67
2023/01/04 09:36:15;;;;;;;0.93;0.80;;;18.30;62.70;;;;;;5050103;28;20815;-67
2023/01/04 09:38:42;;;;;;;1.02;0.90;;;18.30;62.70;;;;;;5051357;28;20186;-67
2023/01/04 09:41:19;;;;;;;0.70;0.70;;;18.30;62.60;;;;;;5050345;28;20193;-67
2023/01/04 09:43:57;;;;;;;1.00;0.70;;;18.30;62.70;;;;;;5046097;28;20232;-67
2023/01/04 09:46:39;;;;;;;1.20;0.82;;;18.30;62.60;;;;;;5043504;28;20245;-67
2023/01/04 09:49:29;;;;;;;0.93;0.65;;;18.30;62.70;;;;;;5053668;28;20198;-67
2023/01/04 09:52:39;;;;;;;0.80;0.80;;;18.30;62.60;;;;;;5063406;28;20189;-67
2023/01/04 09:55:41;;;;;;;0.75;0.70;;;18.30;62.70;;;;;;5037758;28;20260;-68
2023/01/04 09:58:39;;;;;;;0.70;0.70;;;18.30;62.60;;;;;;5037027;28;20249;-68
2023/01/04 10:01:13;;;;;;;0.98;0.98;;;18.30;62.60;;;;;;5053187;28;20191;-68
2023/01/04 10:03:50;;;;;;;1.33;0.70;;;18.30;62.60;;;;;;5070362;28;20189;-68
2023/01/04 10:06:16;;;;;;;1.50;1.00;;;18.30;62.70;;;;;;5053248;28;20206;-68
2023/01/04 10:08:43;;;;;;;0.75;0.75;;;18.30;62.70;;;;;;5053253;28;20576;-68
2023/01/04 10:11:44;;;;;;;1.30;1.00;;;18.30;62.60;;;;;;5069848;28;20186;-69
2023/01/04 10:14:35;;;;;;;0.80;0.80;;;18.30;62.70;;;;;;5048209;28;20664;-69
2023/01/04 10:17:51;;;;;;;1.10;0.68;;;18.40;62.80;;;;;;5063594;28;20245;-68
2023/01/04 10:21:12;;;;;;;0.98;0.90;;;18.40;62.80;;;;;;5029943;28;20213;-68
2023/01/04 10:24:09;;;;;;;1.00;0.90;;;18.30;62.70;;;;;;5022012;28;20198;-68
2023/01/04 10:27:04;;;;;;;2.05;0.90;;;18.40;62.70;;;;;;5069559;28;20592;-68
2023/01/04 10:30:19;;;;;;;1.17;0.80;;;18.30;62.70;;;;;;5031382;28;20205;-68
2023/01/04 10:33:00;;;;;;;4.00;0.85;;;18.30;62.70;;;;;;5078025;22;20246;-69
2023/01/04 10:35:27;;;;;;;1.10;0.93;;;18.30;62.70;;;;;;5018390;28;20198;-71
2023/01/04 10:38:03;;;;;;;1.27;0.70;;;18.30;62.70;;;;;;5029210;28;20248;-70
2023/01/04 10:40:36;;;;;;;0.73;0.70;;;18.30;62.70;;;;;;5009908;28;20187;-71
2023/01/04 10:43:30;;;;;;;1.17;1.08;;;18.30;62.70;;;;;;4999675;28;20265;-71
2023/01/04 10:46:12;;;;;;;1.02;0.80;;;18.30;62.80;;;;;;5021088;28;20268;-70
2023/01/04 10:48:55;;;;;;;2.13;1.17;;;18.30;62.70;;;;;;5008215;28;20350;-70
2023/01/04 10:51:41;;;;;;;0.80;0.80;;;18.30;62.70;;;;;;5016398;28;20188;-70
2023/01/04 10:54:32;;;;;;;1.00;0.80;;;18.40;62.80;;;;;;5000077;28;20222;-69
2023/01/04 10:57:04;;;;;;;1.33;1.00;;;18.40;62.80;;;;;;5037470;28;20234;-71
2023/01/04 11:00:04;;;;;;;0.68;0.68;;;18.40;62.80;;;;;;5012017;28;20264;-70
2023/01/04 11:03:01;;;;;;;1.13;0.88;;;18.40;62.80;;;;;;4996657;28;20199;-70
2023/01/04 11:06:07;;;;;;;1.70;0.68;;;18.40;62.80;;;;;;5008176;28;20204;-70
2023/01/04 11:08:46;;;;;;;1.48;0.73;;;18.30;62.70;;;;;;4999590;28;20184;-70
2023/01/04 11:11:26;;;;;;;0.93;0.80;;;18.40;62.80;;;;;;4991643;28;20211;-70
2023/01/04 11:13:52;;;;;;;1.05;0.70;;;18.40;62.80;;;;;;5016089;28;20228;-70
2023/01/04 11:16:19;;;;;;;0.90;0.80;;;18.40;62.80;;;;;;5001235;28;20199;-70
2023/01/04 11:18:48;;;;;;;1.20;0.77;;;18.40;62.90;;;;;;5024709;28;20195;-70
2023/01/04 11:21:21;;;;;;;0.77;0.70;;;18.40;62.80;;;;;;5024746;28;20192;-70
2023/01/04 11:23:47;;;;;;;1.30;0.90;;;18.40;62.80;;;;;;5016351;28;20622;-70
2023/01/04 11:26:21;;;;;;;1.67;0.90;;;18.40;62.70;;;;;;5005570;28;20212;-70
2023/01/04 11:28:52;;;;;;;1.20;0.65;;;18.40;62.70;;;;;;5011065;28;20188;-70
2023/01/04 11:31:49;;;;;;;0.95;0.60;;;18.40;62.80;;;;;;5017981;28;20184;-70
2023/01/04 11:34:15;;;;;;;0.95;0.70;;;18.40;62.80;;;;;;5011859;28;20267;-70
2023/01/04 11:36:46;;;;;;;1.15;0.98;;;18.40;62.70;;;;;;5014257;28;20337;-70
2023/01/04 11:39:25;;;;;;;0.98;0.70;;;18.40;62.70;;;;;;4999688;28;20196;-70
2023/01/04 11:42:03;;;;;;;0.80;0.80;;;18.40;62.70;;;;;;5013793;28;20184;-70
2023/01/04 11:44:34;;;;;;;1.50;0.70;;;18.40;62.70;;;;;;4996551;28;20228;-70
2023/01/04 11:47:06;;;;;;;1.63;0.80;;;18.40;62.80;;;;;;4987747;28;20566;-70
2023/01/04 11:49:35;;;;;;;1.90;0.90;;;18.40;62.70;;;;;;4982888;28;20188;-70
2023/01/04 11:52:03;;;;;;;1.27;0.93;;;18.40;62.70;;;;;;5006521;28;20248;-70
2023/01/04 11:54:28;;;;;;;0.80;0.80;;;18.40;62.80;;;;;;5000114;28;20204;-69
2023/01/04 11:57:02;;;;;;;0.82;0.70;;;18.40;62.80;;;;;;4985205;28;20177;-70
2023/01/04 11:59:28;;;;;;;1.75;0.90;;;18.40;62.80;;;;;;5009557;28;20279;-70
2023/01/04 12:02:22;;;;;;;1.30;0.80;;;18.40;62.80;;;;;;5002844;28;20220;-70
2023/01/04 12:04:51;;;;;;;1.27;0.70;;;18.40;62.80;;;;;;4988077;28;20220;-70
2023/01/04 12:07:31;;;;;;;1.42;0.93;;;18.40;62.90;;;;;;4998871;28;20180;-70
2023/01/04 12:10:00;;;;;;;1.17;0.80;;;18.40;62.80;;;;;;5005633;28;20258;-70
2023/01/04 12:12:33;;;;;;;1.95;0.90;;;18.40;62.90;;;;;;4997821;28;20184;-70
2023/01/04 12:15:12;;;;;;;0.82;0.80;;;18.40;62.80;;;;;;4993820;28;20192;-70
2023/01/04 12:17:56;;;;;;;1.00;0.90;;;18.40;62.80;;;;;;5001751;28;20198;-70
2023/01/04 12:20:27;;;;;;;0.80;0.70;;;18.40;62.80;;;;;;5000981;28;20192;-70
2023/01/04 12:22:53;;;;;;;1.73;0.90;;;18.40;62.80;;;;;;5005039;28;20211;-70
2023/01/04 12:25:44;;;;;;;1.10;1.00;;;18.40;62.90;;;;;;4990005;28;20287;-70
2023/01/04 12:28:38;;;;;;;1.05;0.95;;;18.40;62.80;;;;;;5001692;28;20181;-70
2023/01/04 12:31:19;;;;;;;1.70;1.00;;;18.40;62.80;;;;;;4990077;28;20195;-70
2023/01/04 12:33:47;;;;;;;1.17;1.00;;;18.40;62.90;;;;;;5005904;28;20698;-70
2023/01/04 12:36:37;;;;;;;1.58;1.15;;;18.40;62.80;;;;;;5004629;28;20629;-70
2023/01/04 12:39:15;;;;;;;1.23;1.00;;;18.40;62.80;;;;;;5002042;28;20273;-70
2023/01/04 12:41:40;;;;;;;3.35;1.10;;;18.40;62.80;;;;;;4998677;28;20259;-70
2023/01/04 12:44:35;;;;;;;0.82;0.73;;;18.40;62.80;;;;;;5000657;28;20204;-70
2023/01/04 12:49:56;;;;;;;0.75;0.73;;;18.40;62.80;;;;;;4995278;28;20220;-71
2023/01/04 12:52:22;;;;;;;1.45;0.98;;;18.40;62.80;;;;;;4997661;28;20180;-71
2023/01/04 12:54:48;;;;;;;1.10;0.90;;;18.40;62.80;;;;;;5000867;28;20303;-71
2023/01/04 12:57:16;;;;;;;1.27;1.05;;;18.40;62.80;;;;;;4998496;28;20274;-71
2023/01/04 13:00:03;;;;;;;0.77;0.77;;;18.40;62.80;;;;;;4994898;28;20196;-70
2023/01/04 13:02:33;;;;;;;1.20;0.90;;;18.40;62.80;;;;;;5001044;28;20199;-71
2023/01/04 13:05:22;;;;;;;1.10;1.00;;;18.40;62.80;;;;;;4992939;28;20240;-70
2023/01/04 13:07:59;;;;;;;0.95;0.88;;;18.40;62.80;;;;;;5008131;28;20245;-70
2023/01/04 13:10:54;;;;;;;1.20;0.88;;;18.40;62.80;;;;;;4997150;28;20310;-71
2023/01/04 13:14:03;;;;;;;2.15;0.70;;;18.40;62.90;;;;;;4982008;28;20212;-70
2023/01/04 13:16:46;;;;;;;0.75;0.75;;;18.40;62.90;;;;;;4999587;28;20194;-70
2023/01/04 13:19:27;;;;;;;0.80;0.80;;;18.40;63.60;;;;;;4989732;28;20564;-70
2023/01/04 13:21:54;;;;;;;0.75;0.75;;;18.40;62.90;;;;;;5002291;28;20201;-70
2023/01/04 13:24:29;;;;;;;0.98;0.85;;;18.40;62.80;;;;;;4975611;28;20299;-70
2023/01/04 13:26:56;;;;;;;0.82;0.70;;;18.40;62.90;;;;;;4978560;28;20183;-70
2023/01/04 13:29:21;;;;;;;0.90;0.80;;;18.50;63.00;;;;;;5004733;28;20192;-70
2023/01/04 13:32:10;;;;;;;1.45;0.70;;;18.40;62.90;;;;;;5001873;28;20197;-70
2023/01/04 13:34:45;;;;;;;0.77;0.70;;;18.40;62.90;;;;;;5004178;28;20302;-70
2023/01/04 13:37:10;;;;;;;1.00;0.90;;;18.40;62.90;;;;;;5007556;28;20199;-70
2023/01/04 13:39:43;;;;;;;1.75;0.70;;;18.40;62.90;;;;;;5007659;28;20191;-70
2023/01/04 13:42:38;;;;;;;1.00;0.80;;;18.40;62.90;;;;;;5004487;28;20198;-70
2023/01/04 13:45:24;;;;;;;2.10;1.02;;;18.40;62.90;;;;;;4999299;28;20224;-70
2023/01/04 13:47:55;;;;;;;1.50;0.90;;;18.40;62.90;;;;;;5009898;28;20200;-70
2023/01/04 13:50:41;;;;;;;2.15;0.80;;;18.40;62.90;;;;;;4996481;28;20185;-70
2023/01/04 13:53:22;;;;;;;0.80;0.80;;;18.40;62.80;;;;;;5017174;28;20263;-70
2023/01/04 13:55:58;;;;;;;1.80;0.90;;;18.40;62.90;;;;;;5009497;28;20203;-70
2023/01/04 13:58:29;;;;;;;0.70;0.70;;;18.40;62.80;;;;;;5012174;28;20195;-70